createdAt,value
2019-06-07T00:01:16.355Z,13.68
2019-06-07T00:03:55.430Z,13.71
2019-06-07T00:06:32.534Z,13.71
2019-06-07T00:09:02.774Z,13.77
2019-06-07T00:11:32.544Z,13.77
2019-06-07T00:14:02.558Z,13.72
2019-06-07T00:16:30.905Z,13.69
2019-06-07T00:19:02.375Z,13.68
2019-06-07T00:22:12.763Z,13.57
2019-06-07T00:24:00.938Z,13.54
2019-06-07T00:26:30.317Z,13.59
2019-06-07T00:28:58.730Z,13.64
2019-06-07T00:31:30.624Z,13.46
2019-06-07T00:33:59.035Z,13.37
2019-06-07T00:36:30.062Z,13.24
2019-06-07T00:39:01.917Z,13.29
2019-06-07T00:41:34.127Z,13.23
2019-06-07T00:44:02.542Z,13.13
2019-06-07T00:46:34.816Z,13.16
2019-06-07T00:49:05.870Z,13.10
2019-06-07T00:51:50.174Z,13.19
2019-06-07T00:54:12.953Z,13.16
2019-06-07T00:56:42.405Z,13.17
2019-06-07T00:59:14.651Z,13.24
2019-06-07T01:01:45.279Z,13.21
2019-06-07T01:04:17.746Z,13.24
2019-06-07T01:06:45.901Z,13.22
2019-06-07T01:09:15.322Z,13.21
2019-06-07T01:11:48.573Z,13.16
2019-06-07T01:14:24.067Z,13.12
2019-06-07T01:16:59.372Z,13.17
2019-06-07T01:19:27.552Z,13.21
2019-06-07T01:21:56.273Z,13.19
2019-06-07T01:24:38.476Z,13.14
2019-06-07T01:27:10.103Z,13.13
2019-06-07T01:29:38.509Z,13.05
2019-06-07T01:32:10.677Z,13.13
2019-06-07T01:34:45.450Z,13.24
2019-06-07T01:37:16.855Z,13.30
2019-06-07T01:39:48.431Z,13.38
2019-06-07T01:42:18.172Z,13.37
2019-06-07T01:44:51.235Z,13.32
2019-06-07T01:47:21.195Z,13.37
2019-06-07T01:49:52.974Z,13.31
2019-06-07T01:52:26.871Z,13.30
2019-06-07T01:54:59.325Z,13.42
2019-06-07T01:57:45.473Z,13.44
2019-06-07T02:00:11.996Z,13.44
2019-06-07T02:02:40.406Z,13.44
2019-06-07T02:05:10.146Z,13.39
2019-06-07T02:07:39.699Z,13.47
2019-06-07T02:10:09.349Z,13.49
2019-06-07T02:12:43.454Z,13.35
2019-06-07T02:15:13.715Z,13.31
2019-06-07T02:17:43.025Z,13.35
2019-06-07T02:20:22.940Z,13.47
2019-06-07T02:22:49.734Z,13.46
2019-06-07T02:25:42.262Z,13.43
2019-06-07T02:28:25.971Z,13.47
2019-06-07T02:30:53.226Z,13.46
2019-06-07T02:32:58.017Z,13.43
2019-06-07T02:35:34.877Z,13.34
2019-06-07T02:37:59.227Z,13.30
2019-06-07T02:40:36.972Z,13.23
2019-06-07T02:43:05.396Z,13.29
2019-06-07T02:45:42.144Z,13.27
2019-06-07T02:48:08.309Z,13.22
2019-06-07T02:50:43.980Z,13.27
2019-06-07T02:53:12.401Z,13.28
2019-06-07T02:56:26.892Z,13.23
2019-06-07T02:58:21.518Z,13.16
2019-06-07T03:01:08.880Z,13.24
2019-06-07T03:03:22.425Z,13.07
2019-06-07T03:05:52.068Z,13.16
2019-06-07T03:08:20.538Z,13.24
2019-06-07T03:10:53.857Z,13.13
2019-06-07T03:13:28.927Z,13.22
2019-06-07T03:16:03.524Z,13.17
2019-06-07T03:18:51.799Z,13.01
2019-06-07T03:21:31.488Z,13.08
2019-06-07T03:24:03.596Z,12.95
2019-06-07T03:26:45.754Z,12.93
2019-06-07T03:29:03.628Z,12.91
2019-06-07T03:31:45.947Z,12.92
2019-06-07T03:34:09.359Z,12.98
2019-06-07T03:36:41.558Z,12.83
2019-06-07T03:39:09.987Z,12.97
2019-06-07T03:42:04.736Z,12.98
2019-06-07T03:44:12.637Z,12.97
2019-06-07T03:46:45.356Z,11.19
2019-06-07T03:49:17.957Z,12.79
2019-06-07T03:51:46.351Z,12.81
2019-06-07T03:54:17.470Z,12.76
2019-06-07T03:56:48.223Z,12.65
2019-06-07T03:59:16.663Z,12.64
2019-06-07T04:01:47.842Z,12.63
2019-06-07T04:04:16.258Z,12.64
2019-06-07T04:06:44.695Z,12.69
2019-06-07T04:09:18.374Z,12.69
2019-06-07T04:11:46.777Z,12.76
2019-06-07T04:14:16.234Z,12.76
2019-06-07T04:16:45.172Z,12.75
2019-06-07T04:19:18.219Z,12.74
2019-06-07T04:21:47.574Z,12.73
2019-06-07T04:24:18.489Z,12.93
2019-06-07T04:26:50.681Z,12.89
2019-06-07T04:29:56.695Z,12.88
2019-06-07T04:31:56.883Z,13.07
2019-06-07T04:34:25.300Z,13.03
2019-06-07T04:36:59.740Z,13.12
2019-06-07T04:39:35.818Z,13.31
2019-06-07T04:42:06.003Z,13.45
2019-06-07T04:44:42.574Z,13.51
2019-06-07T04:47:17.287Z,13.55
2019-06-07T04:49:48.536Z,13.69
2019-06-07T04:52:19.517Z,13.72
2019-06-07T04:54:51.041Z,13.90
2019-06-07T04:57:19.449Z,14.17
2019-06-07T05:00:11.736Z,14.17
2019-06-07T05:02:23.323Z,14.21
2019-06-07T05:04:52.899Z,14.64
2019-06-07T05:07:22.341Z,15.13
2019-06-07T05:09:53.176Z,15.74
2019-06-07T05:12:21.580Z,16.23
2019-06-07T05:14:49.997Z,16.58
2019-06-07T05:17:20.976Z,16.64
2019-06-07T05:19:54.020Z,17.16
2019-06-07T05:22:31.664Z,17.58
2019-06-07T05:25:01.634Z,17.70
2019-06-07T05:27:38.588Z,18.35
2019-06-07T05:30:56.954Z,18.29
2019-06-07T05:32:50.966Z,18.50
2019-06-07T05:35:19.521Z,19.02
2019-06-07T05:37:47.888Z,19.77
2019-06-07T05:40:24.608Z,20.20
2019-06-07T05:42:58.386Z,20.74
2019-06-07T05:45:39.131Z,21.10
2019-06-07T05:48:12.243Z,21.24
2019-06-07T05:50:55.430Z,21.33
2019-06-07T05:53:14.874Z,22.25
2019-06-07T05:55:51.304Z,23.17
2019-06-07T05:58:22.854Z,23.84
2019-06-07T06:00:54.281Z,23.84
2019-06-07T06:03:29.138Z,24.27
2019-06-07T06:06:01.956Z,24.25
2019-06-07T06:08:36.671Z,24.31
2019-06-07T06:11:10.922Z,24.42
2019-06-07T06:14:04.669Z,24.76
2019-06-07T06:16:14.276Z,25.03
2019-06-07T06:18:51.101Z,24.98
2019-06-07T06:21:45.233Z,24.88
2019-06-07T06:24:17.307Z,25.40
2019-06-07T06:26:57.042Z,25.17
2019-06-07T06:29:26.014Z,26.15
2019-06-07T06:32:40.541Z,27.80
2019-06-07T06:34:46.959Z,28.97
2019-06-07T06:37:24.793Z,30.04
2019-06-07T06:39:52.021Z,30.79
2019-06-07T06:42:21.513Z,31.76
2019-06-07T06:44:56.364Z,31.97
2019-06-07T06:47:32.633Z,32.75
2019-06-07T06:50:05.383Z,33.17
2019-06-07T06:52:46.231Z,33.91
2019-06-07T06:55:15.450Z,33.70
2019-06-07T06:57:43.844Z,33.72
2019-06-07T07:00:21.544Z,34.03
2019-06-07T07:03:40.690Z,33.48
2019-06-07T07:05:31.918Z,33.31
2019-06-07T07:08:00.499Z,31.79
2019-06-07T07:10:43.311Z,33.91
2019-06-07T07:13:12.430Z,34.47
2019-06-07T07:15:42.813Z,33.01
2019-06-07T07:18:13.773Z,32.81
2019-06-07T07:20:43.522Z,32.63
2019-06-07T07:23:12.299Z,33.33
2019-06-07T07:25:46.041Z,33.31
2019-06-07T07:28:14.257Z,33.07
2019-06-07T07:30:55.380Z,33.91
2019-06-07T07:34:20.594Z,34.07
2019-06-07T07:36:23.272Z,33.74
2019-06-07T07:38:48.977Z,32.74
2019-06-07T07:41:15.627Z,32.34
2019-06-07T07:43:45.702Z,33.86
2019-06-07T07:46:29.006Z,33.50
2019-06-07T07:48:54.705Z,33.46
2019-06-07T07:51:27.807Z,33.75
2019-06-07T07:54:10.223Z,33.82
2019-06-07T07:56:27.460Z,34.40
2019-06-07T07:59:01.469Z,34.03
2019-06-07T08:01:28.679Z,33.64
2019-06-07T08:04:04.720Z,33.55
2019-06-07T08:06:35.574Z,32.20
2019-06-07T08:09:05.652Z,32.89
2019-06-07T08:11:35.117Z,31.29
2019-06-07T08:14:08.104Z,31.15
2019-06-07T08:16:37.513Z,31.41
2019-06-07T08:19:18.259Z,32.54
2019-06-07T08:21:50.608Z,32.27
2019-06-07T08:24:19.994Z,30.86
2019-06-07T08:27:12.306Z,31.00
2019-06-07T08:29:22.350Z,30.09
2019-06-07T08:31:58.710Z,29.52
2019-06-07T08:34:29.903Z,28.59
2019-06-07T08:37:00.119Z,27.38
2019-06-07T08:39:27.500Z,26.69
2019-06-07T08:42:14.118Z,25.43
2019-06-07T08:44:28.286Z,24.88
2019-06-07T08:47:16.675Z,24.08
2019-06-07T08:49:26.847Z,23.86
2019-06-07T08:52:09.729Z,23.69
2019-06-07T08:54:29.483Z,23.28
2019-06-07T08:57:17.986Z,22.80
2019-06-07T08:59:28.043Z,23.00
2019-06-07T09:02:04.223Z,22.89
2019-06-07T09:04:36.963Z,23.08
2019-06-07T09:07:19.464Z,23.00
2019-06-07T09:09:47.521Z,23.32
2019-06-07T09:12:16.023Z,23.08
2019-06-07T09:14:59.582Z,22.75
2019-06-07T09:17:18.385Z,22.75
2019-06-07T09:19:47.058Z,22.95
2019-06-07T09:22:17.864Z,22.78
2019-06-07T09:24:46.307Z,22.85
2019-06-07T09:27:15.335Z,22.84
2019-06-07T09:29:44.589Z,22.39
2019-06-07T09:32:18.694Z,22.38
2019-06-07T09:34:47.256Z,22.27
2019-06-07T09:39:54.386Z,22.36
2019-06-07T09:42:26.935Z,22.19
2019-06-07T09:44:57.021Z,22.40
2019-06-07T09:47:32.824Z,22.20
2019-06-07T09:50:08.303Z,22.58
2019-06-07T09:52:29.750Z,22.60
2019-06-07T09:55:09.362Z,22.99
2019-06-07T09:57:34.047Z,22.79
2019-06-07T10:00:38.183Z,22.73
2019-06-07T10:02:35.770Z,22.68
2019-06-07T10:05:12.178Z,22.87
2019-06-07T10:07:59.181Z,22.71
2019-06-07T10:12:45.929Z,22.96
2019-06-07T10:15:14.489Z,22.47
2019-06-07T10:17:42.920Z,22.73
2019-06-07T10:20:13.076Z,22.67
2019-06-07T10:22:43.890Z,22.70
2019-06-07T10:25:12.467Z,22.73
2019-06-07T10:27:43.391Z,22.52
2019-06-07T10:30:13.195Z,22.55
2019-06-07T10:32:52.078Z,22.17
2019-06-07T10:35:18.741Z,22.10
2019-06-07T10:37:53.289Z,22.42
2019-06-07T10:40:25.424Z,22.53
2019-06-07T10:42:58.689Z,22.14
2019-06-07T10:45:27.080Z,22.32
2019-06-07T10:47:55.497Z,22.35
2019-06-07T10:50:23.986Z,22.25
2019-06-07T10:53:10.713Z,22.12
2019-06-07T10:55:40.293Z,22.54
2019-06-07T10:58:09.199Z,22.35
2019-06-07T11:00:37.693Z,22.57
2019-06-07T11:03:11.839Z,22.98
2019-06-07T11:05:41.381Z,23.34
2019-06-07T11:08:10.242Z,23.38
2019-06-07T11:10:38.786Z,23.22
2019-06-07T11:13:08.245Z,23.30
2019-06-07T11:15:36.860Z,22.86
2019-06-07T11:18:06.377Z,22.11
2019-06-07T11:20:35.594Z,22.23
2019-06-07T11:23:10.121Z,22.54
2019-06-07T11:25:42.037Z,22.98
2019-06-07T11:28:18.711Z,22.78
2019-06-07T11:30:52.200Z,22.54
2019-06-07T11:33:24.993Z,22.67
2019-06-07T11:35:54.321Z,22.62
2019-06-07T11:38:26.613Z,22.80
2019-06-07T11:41:00.915Z,22.49
2019-06-07T11:43:33.572Z,22.47
2019-06-07T11:46:01.986Z,22.84
2019-06-07T11:48:30.466Z,22.74
2019-06-07T11:51:08.636Z,22.70
2019-06-07T11:53:56.197Z,22.49
2019-06-07T11:56:25.561Z,22.73
2019-06-07T11:58:54.951Z,22.85
2019-06-07T12:01:23.380Z,22.67
2019-06-07T12:03:58.778Z,22.67
2019-06-07T12:06:21.961Z,22.36
2019-06-07T12:08:50.406Z,22.65
2019-06-07T12:11:23.071Z,22.97
2019-06-07T12:13:55.257Z,23.07
2019-06-07T12:16:27.698Z,23.09
2019-06-07T12:18:55.309Z,23.14
2019-06-07T12:23:52.558Z,23.15
2019-06-07T12:26:38.323Z,23.38
2019-06-07T12:29:06.750Z,23.47
2019-06-07T12:31:43.747Z,23.24
2019-06-07T12:34:25.254Z,23.32
2019-06-07T12:36:59.107Z,23.50
2019-06-07T12:39:34.335Z,23.82
2019-06-07T12:42:02.773Z,23.44
2019-06-07T12:44:34.696Z,23.72
2019-06-07T12:47:09.456Z,23.89
2019-06-07T12:49:37.870Z,23.60
2019-06-07T12:52:07.918Z,23.21
2019-06-07T12:54:40.432Z,23.51
2019-06-07T12:57:08.835Z,23.29
2019-06-07T12:59:41.042Z,22.96
2019-06-07T13:02:09.689Z,23.32
2019-06-07T13:04:38.033Z,23.13
2019-06-07T13:07:06.678Z,23.14
2019-06-07T13:09:51.809Z,23.06
2019-06-07T13:12:24.489Z,23.23
2019-06-07T13:14:52.927Z,23.62
2019-06-07T13:17:22.277Z,23.21
2019-06-07T13:19:53.413Z,23.69
2019-06-07T13:22:22.306Z,23.68
2019-06-07T13:24:50.875Z,23.84
2019-06-07T13:27:20.439Z,23.89
2019-06-07T13:29:51.951Z,23.65
2019-06-07T13:32:28.162Z,23.52
2019-06-07T13:35:20.475Z,23.71
2019-06-07T13:37:59.817Z,23.75
2019-06-07T13:40:33.856Z,23.60
2019-06-07T13:43:17.260Z,23.34
2019-06-07T13:45:49.460Z,23.39
2019-06-07T13:48:32.493Z,23.29
2019-06-07T13:51:12.711Z,23.16
2019-06-07T13:53:53.560Z,23.29
2019-06-07T13:56:37.098Z,23.47
2019-06-07T13:59:09.528Z,23.45
2019-06-07T14:01:47.374Z,23.21
2019-06-07T14:04:24.890Z,23.23
2019-06-07T14:07:08.974Z,23.41
2019-06-07T14:09:29.870Z,23.44
2019-06-07T14:12:06.541Z,23.05
2019-06-07T14:14:39.633Z,23.17
2019-06-07T14:20:09.832Z,23.41
2019-06-07T14:22:48.916Z,23.65
2019-06-07T14:25:25.131Z,23.58
2019-06-07T14:27:57.087Z,23.57
2019-06-07T14:30:33.389Z,23.80
2019-06-07T14:33:09.483Z,23.80
2019-06-07T14:35:51.618Z,23.88
2019-06-07T14:38:24.900Z,23.81
2019-06-07T14:40:55.769Z,24.07
2019-06-07T14:43:25.113Z,24.10
2019-06-07T14:45:56.776Z,24.03
2019-06-07T14:48:36.788Z,24.06
2019-06-07T14:51:05.448Z,23.94
2019-06-07T14:53:36.402Z,24.07
2019-06-07T14:56:14.174Z,24.00
2019-06-07T15:02:50.174Z,23.68
2019-06-07T15:10:35.232Z,24.07
2019-06-07T15:19:16.341Z,23.43
2019-06-07T15:23:39.358Z,23.65
2019-06-07T15:25:31.179Z,23.80
2019-06-07T15:28:24.345Z,23.77
2019-06-07T15:30:52.775Z,23.77
2019-06-07T15:33:24.276Z,23.46
2019-06-07T15:36:19.829Z,23.74
2019-06-07T15:38:47.931Z,23.97
2019-06-07T15:41:16.324Z,23.64
2019-06-07T15:43:44.724Z,23.89
2019-06-07T15:46:42.442Z,23.80
2019-06-07T15:49:12.028Z,23.69
2019-06-07T15:51:40.976Z,24.02
2019-06-07T15:54:09.707Z,23.80
2019-06-07T15:56:39.176Z,23.62
2019-06-07T15:59:08.670Z,23.54
2019-06-07T16:01:37.674Z,23.53
2019-06-07T16:04:06.185Z,23.47
2019-06-07T16:06:43.369Z,23.48
2019-06-07T16:09:08.544Z,23.62
2019-06-07T16:11:37.294Z,23.62
2019-06-07T16:14:09.868Z,23.50
2019-06-07T16:16:43.411Z,23.52
2019-06-07T16:19:11.916Z,23.59
2019-06-07T16:21:41.482Z,23.43
2019-06-07T16:24:11.986Z,23.40
2019-06-07T16:27:01.615Z,23.44
2019-06-07T16:29:34.572Z,23.35
2019-06-07T16:32:06.567Z,23.53
2019-06-07T16:34:35.092Z,23.45
2019-06-07T16:37:03.642Z,23.56
2019-06-07T16:39:33.061Z,23.53
2019-06-07T16:42:04.654Z,23.53
2019-06-07T16:44:33.129Z,23.46
2019-06-07T16:47:04.384Z,23.31
2019-06-07T16:49:32.935Z,23.23
2019-06-07T16:52:04.233Z,23.24
2019-06-07T16:54:35.640Z,23.17
2019-06-07T16:57:19.945Z,23.20
2019-06-07T16:59:51.187Z,23.06
2019-06-07T17:02:21.804Z,22.72
2019-06-07T17:04:51.301Z,22.71
2019-06-07T17:07:24.679Z,22.51
2019-06-07T17:09:56.869Z,22.43
2019-06-07T17:12:28.172Z,22.35
2019-06-07T17:15:07.735Z,22.36
2019-06-07T17:17:41.019Z,22.30
2019-06-07T17:20:24.601Z,22.19
2019-06-07T17:22:49.784Z,22.14
2019-06-07T17:25:21.382Z,22.05
2019-06-07T17:27:59.126Z,21.92
2019-06-07T17:30:27.606Z,21.78
2019-06-07T17:32:59.440Z,21.71
2019-06-07T17:35:32.107Z,21.78
2019-06-07T17:38:04.955Z,21.75
2019-06-07T17:40:33.685Z,21.76
2019-06-07T17:43:02.225Z,21.54
2019-06-07T17:45:35.558Z,21.49
2019-06-07T17:48:02.778Z,21.49
2019-06-07T17:50:31.474Z,21.54
2019-06-07T17:53:02.837Z,21.53
2019-06-07T17:55:31.612Z,21.46
2019-06-07T17:58:02.742Z,21.09
2019-06-07T18:00:53.095Z,21.09
2019-06-07T18:03:28.643Z,21.05
2019-06-07T18:06:00.799Z,20.78
2019-06-07T18:08:30.429Z,20.59
2019-06-07T18:11:03.565Z,20.56
2019-06-07T18:13:32.125Z,20.67
2019-06-07T18:16:00.550Z,20.61
2019-06-07T18:18:28.950Z,20.49
2019-06-07T18:21:00.022Z,20.24
2019-06-07T18:23:34.519Z,20.16
2019-06-07T18:26:03.939Z,20.19
2019-06-07T18:28:32.358Z,20.25
2019-06-07T18:31:03.538Z,20.16
2019-06-07T18:33:38.283Z,20.07
2019-06-07T18:36:06.691Z,20.01
2019-06-07T18:38:35.111Z,20.01
2019-06-07T18:41:03.523Z,20.00
2019-06-07T18:43:31.928Z,19.84
2019-06-07T18:46:00.410Z,19.80
2019-06-07T18:48:33.071Z,19.60
2019-06-07T18:51:07.502Z,19.61
2019-06-07T18:53:39.431Z,19.68
2019-06-07T18:56:18.906Z,19.56
2019-06-07T18:58:55.311Z,19.44
2019-06-07T19:01:30.064Z,19.37
2019-06-07T19:04:02.956Z,19.25
2019-06-07T19:06:32.348Z,19.26
2019-06-07T19:09:01.662Z,19.13
2019-06-07T19:11:37.817Z,19.12
2019-06-07T19:14:11.024Z,18.94
2019-06-07T19:16:40.905Z,18.81
2019-06-07T19:19:14.811Z,18.82
2019-06-07T19:21:43.430Z,18.67
2019-06-07T19:24:14.746Z,18.62
2019-06-07T19:26:47.885Z,18.54
2019-06-07T19:29:24.420Z,18.40
2019-06-07T19:31:52.993Z,18.23
2019-06-07T19:34:31.248Z,18.31
2019-06-07T19:37:02.193Z,18.27
2019-06-07T19:39:37.108Z,18.19
2019-06-07T19:42:09.931Z,18.11
2019-06-07T19:44:52.069Z,17.89
2019-06-07T19:47:12.571Z,17.95
2019-06-07T19:49:46.522Z,17.96
2019-06-07T19:52:23.959Z,17.87
2019-06-07T19:54:53.733Z,17.79
2019-06-07T19:57:22.299Z,17.72
2019-06-07T19:59:50.711Z,17.76
2019-06-07T20:02:19.136Z,17.68
2019-06-07T20:04:48.473Z,17.68
2019-06-07T20:07:17.001Z,17.72
2019-06-07T20:09:46.520Z,17.62
2019-06-07T20:12:20.903Z,17.48
2019-06-07T20:14:49.319Z,17.58
2019-06-07T20:17:19.812Z,17.56
2019-06-07T20:19:49.345Z,17.46
2019-06-07T20:22:19.117Z,17.45
2019-06-07T20:25:07.242Z,17.52
2019-06-07T20:27:37.794Z,17.47
2019-06-07T20:30:08.581Z,17.29
2019-06-07T20:32:37.087Z,17.39
2019-06-07T20:35:06.334Z,17.35
2019-06-07T20:37:34.742Z,17.21
2019-06-07T20:40:22.950Z,17.28
2019-06-07T20:42:41.383Z,17.32
2019-06-07T20:45:14.906Z,17.31
2019-06-07T20:47:45.816Z,17.31
2019-06-07T20:50:20.093Z,17.36
2019-06-07T20:52:48.514Z,17.29
2019-06-07T20:55:17.256Z,17.26
2019-06-07T20:57:45.714Z,17.25
2019-06-07T21:00:21.971Z,17.25
2019-06-07T21:02:49.824Z,17.23
2019-06-07T21:05:18.233Z,17.28
2019-06-07T21:07:49.097Z,17.27
2019-06-07T21:10:18.676Z,17.26
2019-06-07T21:12:49.975Z,17.23
2019-06-07T21:15:26.391Z,17.24
2019-06-07T21:17:57.372Z,17.16
2019-06-07T21:20:33.873Z,17.23
2019-06-07T21:23:02.795Z,17.16
2019-06-07T21:25:31.208Z,17.18
2019-06-07T21:28:00.915Z,17.15
2019-06-07T21:30:34.151Z,17.19
2019-06-07T21:33:03.591Z,17.19
2019-06-07T21:35:33.771Z,17.22
2019-06-07T21:38:09.842Z,17.21
2019-06-07T21:40:39.440Z,17.23
2019-06-07T21:43:08.735Z,17.38
2019-06-07T21:45:41.340Z,17.44
2019-06-07T21:48:11.605Z,17.48
2019-06-07T21:50:44.696Z,17.47
2019-06-07T21:53:13.095Z,17.35
2019-06-07T21:55:43.462Z,17.36
2019-06-07T21:58:14.582Z,17.40
2019-06-07T22:01:04.028Z,17.43
2019-06-07T22:03:35.127Z,17.20
2019-06-07T22:06:03.553Z,17.20
2019-06-07T22:08:34.513Z,17.09
2019-06-07T22:11:04.036Z,17.11
2019-06-07T22:13:37.475Z,17.18
2019-06-07T22:16:27.957Z,17.22
2019-06-07T22:18:48.390Z,17.22
2019-06-07T22:21:16.800Z,17.25
2019-06-07T22:23:48.703Z,17.26
2019-06-07T22:26:18.126Z,17.18
2019-06-07T22:28:46.540Z,17.15
2019-06-07T22:31:15.091Z,17.04
2019-06-07T22:33:43.464Z,17.05
2019-06-07T22:36:13.184Z,16.91
2019-06-07T22:38:43.559Z,17.04
2019-06-07T22:41:15.882Z,17.07
2019-06-07T22:43:46.588Z,17.04
2019-06-07T22:46:15.127Z,17.17
2019-06-07T22:48:43.600Z,17.16
2019-06-07T22:51:13.322Z,17.09
2019-06-07T22:53:46.058Z,17.19
2019-06-07T22:56:16.134Z,17.20
2019-06-07T22:58:44.522Z,17.27
2019-06-07T23:01:12.930Z,17.34
2019-06-07T23:03:46.225Z,17.38
2019-06-07T23:06:14.781Z,17.50
2019-06-07T23:08:43.236Z,17.58
2019-06-07T23:11:13.223Z,17.60
2019-06-07T23:13:41.782Z,17.52
2019-06-07T23:16:17.722Z,17.55
2019-06-07T23:18:44.464Z,17.57
2019-06-07T23:21:13.798Z,17.47
2019-06-07T23:23:42.301Z,17.57
2019-06-07T23:26:12.094Z,17.41
2019-06-07T23:28:47.026Z,17.37
2019-06-07T23:31:18.565Z,17.53
2019-06-07T23:33:47.071Z,17.52
2019-06-07T23:36:15.493Z,17.53
2019-06-07T23:38:44.914Z,17.50
2019-06-07T23:41:13.335Z,17.38
2019-06-07T23:43:41.744Z,17.37
2019-06-07T23:46:11.426Z,17.42
2019-06-07T23:48:41.928Z,17.40
2019-06-07T23:51:11.434Z,17.32
2019-06-07T23:53:39.947Z,17.18
2019-06-07T23:56:08.373Z,17.24
2019-06-07T23:58:36.770Z,17.23
